Calchin, Argentina
Current Conditions -  °F | °C
As of 6:00 PM on Sunday 23 Nov 2014 (Local Time) from SACO Reporting Station
Few Clouds Few Clouds  
Wind Chill: 86°   Ceiling: Unl
Heat Index: 86°   Visibility: 6mi
Dew Point: 57°   Wind: 20mph
Humidity: 37%   Direction: 20°NNE
Pressure: 29.71"   Gusts: 33mph
Location:  31.67°S, 63.19°W
Report Text: SACO 232100Z 02017G29KT 9999 FEW03030/14 Q1006
Loading
Personal Weather Stations






























Interactive Weather Map New forecast layout! Learn more

10-Day Weather Forecast

Advertisements
Track Severe Weather on mobile